TimeMDT,TemperatureF,Dew PointF,Humidity,Sea Level PressureIn,VisibilityMPH,Wind Direction,Wind SpeedMPH,Gust SpeedMPH,PrecipitationIn,Events,Conditions,WindDirDegrees,DateUTC
12:00 AM,58,49,64,,,ESE,8.1,,,,,110,2013-09-16 06:00:00
12:00 AM,57.7,49.1,73,-9999,-9999.0,ESE,8.1,-,N/A,,Unknown,110,2013-09-16 06:00:00
1:00 AM,57.2,51.1,80,-9999,-9999.0,ESE,6.9,-,N/A,,Unknown,110,2013-09-16 07:00:00
2:00 AM,56.1,51.1,83,-9999,-9999.0,ESE,8.1,-,N/A,,Unknown,110,2013-09-16 08:00:00
3:00 AM,55.2,50.9,85,-9999,-9999.0,East,6.9,-,N/A,,Unknown,100,2013-09-16 09:00:00
4:00 AM,54.9,50.2,84,-9999,-9999.0,East,4.6,-,N/A,,Unknown,100,2013-09-16 10:00:00
5:00 AM,54.5,50.2,85,-9999,-9999.0,ESE,8.1,-,N/A,,Unknown,110,2013-09-16 11:00:00
6:00 AM,53,50,85,,,SE,4.6,,,,,130,2013-09-16 12:00:00
6:00 AM,53.4,49.8,88,-9999,-9999.0,SE,4.6,-,N/A,,Unknown,130,2013-09-16 12:00:00
7:00 AM,54.1,50.4,87,-9999,-9999.0,ESE,5.8,-,N/A,,Unknown,120,2013-09-16 13:00:00
8:00 AM,55.8,51.3,85,-9999,-9999.0,SE,5.8,-,N/A,,Unknown,140,2013-09-16 14:00:00
10:00 AM,68.4,53.8,60,-9999,-9999.0,South,12.7,-,N/A,,Unknown,170,2013-09-16 16:00:00
11:00 AM,73.9,52.2,46,-9999,-9999.0,SSW,11.5,-,N/A,,Unknown,200,2013-09-16 17:00:00
12:00 PM,79,51,28,,,South,16.1,,,,,190,2013-09-16 18:00:00
12:00 PM,79.3,51.4,38,-9999,-9999.0,South,16.1,-,N/A,,Unknown,190,2013-09-16 18:00:00
1:00 PM,86.4,46.0,25,-9999,-9999.0,SSW,21.9,-,N/A,,Unknown,210,2013-09-16 19:00:00
2:00 PM,87.8,42.6,21,-9999,-9999.0,SSW,23.0,-,N/A,,Unknown,210,2013-09-16 20:00:00
3:00 PM,89.1,41.9,19,-9999,-9999.0,SSW,25.3,-,N/A,,Unknown,210,2013-09-16 21:00:00
4:00 PM,86.7,42.4,21,-9999,-9999.0,SW,26.5,-,N/A,,Unknown,220,2013-09-16 22:00:00
5:00 PM,84.9,39.9,20,-9999,-9999.0,SW,27.6,-,N/A,,Unknown,230,2013-09-16 23:00:00
6:00 PM,83,40,12,,,SW,25.3,,,,,230,2013-09-17 00:00:00
6:00 PM,82.9,39.6,21,-9999,-9999.0,SW,25.3,-,N/A,,Unknown,230,2013-09-17 00:00:00
7:00 PM,78.3,40.6,26,-9999,-9999.0,WSW,12.7,-,N/A,,Unknown,250,2013-09-17 01:00:00
8:00 PM,66.2,41.4,40,-9999,-9999.0,SW,10.4,-,N/A,,Unknown,230,2013-09-17 02:00:00
9:00 PM,66.4,42.1,41,-9999,-9999.0,SW,15.0,-,N/A,,Unknown,220,2013-09-17 03:00:00
10:00 PM,62.1,41.9,48,-9999,-9999.0,SSW,9.2,-,N/A,,Unknown,210,2013-09-17 04:00:00
11:00 PM,56.3,41.5,58,-9999,-9999.0,SSW,10.4,-,N/A,,Unknown,210,2013-09-17 05:00:00